Balmaceda, Chile
Current Conditions -  °F | °C
As of 2:00 PM on Thursday 23 Oct 2014 (Local Time) from SCBA Reporting Station
Clear Clear  
Wind Chill: 61°   Ceiling: Unl
Heat Index: 61°   Visibility: 6mi
Dew Point: 37°   Wind: 16mph
Humidity: 42%   Direction: 320°NW
Pressure: 30.15"   Gusts: NA
Location:  45.92°S, 71.7°W
Report Text: SCBA 231800Z 32014KT CAVOK 16/03 Q1021
Loading
Personal Weather Stations






























Interactive Weather Map
Tropical Storm Tracking
New forecast layout! Learn more

10-Day Weather Forecast

Advertisements
Track Severe Weather on mobile